Terminal Aerodrome Forecast
Issued by NWS

Home | Current Version | Previous Version | Text Only | Print | Product List | Glossary On
Versions: 1 2 3 4 5 6 7 8 9 10 11 12 13 14 15 16
000
FTUS43 KDLH 241433 AAA
TAFHYR
TAF AMD
KHYR 241433Z 2415/2512 VRB04KT P6SM BKN007
     FM241600 28006KT P6SM SCT010
     FM250100 27003KT P6SM SCT200=

USA.gov is the U.S. government's official web portal to all federal, state and local government web resources and services.